Time;durP1;ratioP1;P1;durP2;ratioP2;P2;SDS_P1;SDS_P2;PMS_P1;PMS_P2;Temp;Humidity;BMP_temperature;BMP_pressure;BME280_temperature;BME280_humidity;BME280_pressure;Samples;Min_cycle;Max_cycle;Signal;HPM_P1;HPM_P2
2023/12/09 00:01:02;;;;;;;58.20;30.83;;;;;;;3.41;100.00;96566.50;4979491;28;20036;-72
2023/12/09 00:03:28;;;;;;;50.80;30.38;;;;;;;3.43;100.00;96564.25;4982657;28;20057;-75
2023/12/09 00:05:53;;;;;;;49.75;28.50;;;;;;;3.44;100.00;96580.19;4980233;28;20046;-74
2023/12/09 00:08:18;;;;;;;49.97;29.23;;;;;;;3.46;100.00;96574.47;4975857;28;20045;-75
2023/12/09 00:10:44;;;;;;;52.42;29.92;;;;;;;3.47;100.00;96576.03;4979411;28;20133;-74
2023/12/09 00:13:10;;;;;;;53.95;30.67;;;;;;;3.46;100.00;96574.47;4974904;28;20042;-74
2023/12/09 00:15:36;;;;;;;62.28;35.45;;;;;;;3.42;100.00;96578.91;4981196;28;20081;-73
2023/12/09 00:18:02;;;;;;;71.50;38.50;;;;;;;3.40;100.00;96578.44;4984090;28;20120;-70
2023/12/09 00:20:28;;;;;;;75.70;40.13;;;;;;;3.40;100.00;96575.72;4978874;28;20050;-74
2023/12/09 00:22:54;;;;;;;68.07;35.30;;;;;;;3.39;100.00;96563.31;4979939;28;20481;-75
2023/12/09 00:25:19;;;;;;;131.93;71.95;;;;;;;3.36;100.00;96577.50;4972662;28;20185;-72
2023/12/09 00:27:44;;;;;;;71.80;40.22;;;;;;;3.28;100.00;96571.00;4978783;28;20125;-74
2023/12/09 00:30:10;;;;;;;66.35;34.72;;;;;;;3.21;100.00;96579.59;4975885;28;20045;-72
2023/12/09 00:32:35;;;;;;;55.63;31.52;;;;;;;3.25;100.00;96583.25;4980342;28;20042;-73
2023/12/09 00:35:01;;;;;;;57.35;31.35;;;;;;;3.32;100.00;96581.97;4980757;28;20046;-73
2023/12/09 00:37:27;;;;;;;54.25;31.30;;;;;;;3.40;100.00;96578.44;4976832;28;20062;-72
2023/12/09 00:39:52;;;;;;;52.97;30.23;;;;;;;3.39;100.00;96579.56;4979144;28;20042;-73
2023/12/09 00:42:17;;;;;;;50.33;28.67;;;;;;;3.38;100.00;96573.34;4986886;28;20042;-72
2023/12/09 00:44:43;;;;;;;54.10;29.48;;;;;;;3.32;100.00;96576.56;4999620;28;20118;-73
2023/12/09 00:47:09;;;;;;;61.90;33.03;;;;;;;3.21;100.00;96574.19;4975908;28;20093;-73
2023/12/09 00:49:34;;;;;;;58.70;32.97;;;;;;;3.21;100.00;96573.41;4977517;28;20054;-71
2023/12/09 00:52:00;;;;;;;60.22;34.22;;;;;;;3.18;100.00;96574.81;4979714;28;20049;-72
2023/12/09 00:54:25;;;;;;;63.80;34.53;;;;;;;3.17;100.00;96567.03;4977030;28;20056;-73
2023/12/09 00:56:50;;;;;;;60.92;33.20;;;;;;;3.21;100.00;96581.53;4980911;28;20374;-71
2023/12/09 00:59:16;;;;;;;56.17;31.50;;;;;;;3.25;100.00;96577.06;4974062;28;20101;-71
2023/12/09 01:01:41;;;;;;;53.70;30.00;;;;;;;3.31;100.00;96580.38;4989099;28;20082;-73
2023/12/09 01:04:07;;;;;;;50.65;29.58;;;;;;;3.37;100.00;96571.78;4993924;28;20066;-71
2023/12/09 01:06:32;;;;;;;51.65;28.55;;;;;;;3.42;100.00;96568.06;4983855;28;20042;-73
2023/12/09 01:08:57;;;;;;;46.90;27.75;;;;;;;3.47;100.00;96583.38;4982810;28;20133;-73
2023/12/09 01:11:24;;;;;;;51.35;29.25;;;;;;;3.48;100.00;96577.63;4978716;28;20129;-70
2023/12/09 01:13:49;;;;;;;44.58;26.70;;;;;;;3.51;100.00;96582.41;4983959;28;20054;-73
2023/12/09 01:16:15;;;;;;;49.50;27.33;;;;;;;3.52;100.00;96578.56;4979022;28;20528;-72
2023/12/09 01:18:40;;;;;;;49.08;27.10;;;;;;;3.56;100.00;96576.78;4982201;28;20054;-72
2023/12/09 01:21:06;;;;;;;50.85;28.73;;;;;;;3.59;100.00;96578.06;4980287;28;20129;-71
2023/12/09 01:23:31;;;;;;;50.22;28.38;;;;;;;3.64;100.00;96577.91;4983915;28;20049;-70
2023/12/09 01:25:57;;;;;;;55.35;29.73;;;;;;;3.68;100.00;96583.47;4992240;28;20081;-73
2023/12/09 01:28:22;;;;;;;57.67;30.98;;;;;;;3.75;100.00;96583.75;4992289;28;20057;-73
2023/12/09 01:30:47;;;;;;;54.70;31.15;;;;;;;3.72;100.00;96590.59;4983812;28;20046;-73
2023/12/09 01:33:13;;;;;;;55.80;31.65;;;;;;;3.67;100.00;96584.56;4998085;28;20564;-73
2023/12/09 01:35:38;;;;;;;54.08;29.77;;;;;;;3.48;100.00;96576.84;5002790;28;20061;-73
2023/12/09 01:38:04;;;;;;;51.17;27.98;;;;;;;3.17;100.00;96583.25;4982407;28;20097;-73
2023/12/09 01:40:29;;;;;;;49.63;28.90;;;;;;;3.08;100.00;96585.19;4984193;28;20081;-73
2023/12/09 01:42:54;;;;;;;45.45;27.13;;;;;;;3.11;100.00;96590.75;4983666;28;20681;-72
2023/12/09 01:45:20;;;;;;;44.55;26.40;;;;;;;3.23;100.00;96592.81;4978279;28;20549;-73
2023/12/09 01:47:47;;;;;;;53.17;29.38;;;;;;;3.30;100.00;96603.94;4982324;28;20064;-72
2023/12/09 01:50:14;;;;;;;43.63;26.90;;;;;;;3.35;100.00;96605.69;4979790;28;20045;-71
2023/12/09 01:52:40;;;;;;;49.28;26.40;;;;;;;3.42;100.00;96612.22;4983808;28;20137;-71
2023/12/09 01:55:07;;;;;;;51.80;27.15;;;;;;;3.48;100.00;96625.59;4978761;28;20038;-72
2023/12/09 01:57:34;;;;;;;49.25;25.17;;;;;;;3.45;100.00;96627.78;4984095;28;20050;-72
2023/12/09 02:00:03;;;;;;;42.47;24.98;;;;;;;3.53;100.00;96634.31;4983134;28;20449;-72
2023/12/09 02:02:28;;;;;;;44.72;25.95;;;;;;;3.53;100.00;96641.63;4980739;28;20046;-72
2023/12/09 02:04:54;;;;;;;46.90;26.92;;;;;;;3.46;100.00;96636.72;4983807;28;20496;-72
2023/12/09 02:07:20;;;;;;;50.92;28.15;;;;;;;3.40;100.00;96632.59;4980580;28;20046;-72
2023/12/09 02:09:45;;;;;;;50.53;28.05;;;;;;;3.40;100.00;96635.28;4985994;28;20046;-74
2023/12/09 02:12:17;;;;;;;51.75;27.38;;;;;;;3.40;100.00;96630.69;4979117;28;20131;-72
2023/12/09 02:14:58;;;;;;;52.10;27.02;;;;;;;3.47;100.00;96641.00;4996120;28;20063;-72
2023/12/09 02:17:33;;;;;;;52.30;28.17;;;;;;;3.42;100.00;96633.88;4969582;28;21168;-72
2023/12/09 02:20:00;;;;;;;45.42;26.40;;;;;;;3.48;100.00;96642.63;4983238;28;20054;-72
2023/12/09 02:22:26;;;;;;;55.15;27.77;;;;;;;3.52;100.00;96648.97;4978603;28;20054;-71
2023/12/09 02:24:51;;;;;;;52.75;28.50;;;;;;;3.58;100.00;96649.59;4981612;28;20051;-71
2023/12/09 02:27:38;;;;;;;46.60;27.17;;;;;;;3.60;100.00;96640.03;4975811;28;20046;-71
2023/12/09 02:30:12;;;;;;;55.13;30.00;;;;;;;3.55;100.00;96645.63;4977719;28;20409;-71
2023/12/09 02:32:38;;;;;;;50.53;27.17;;;;;;;3.60;100.00;96644.66;4981697;28;20066;-72
2023/12/09 02:35:06;;;;;;;45.95;26.58;;;;;;;3.66;100.00;96645.28;4995269;28;20058;-74
2023/12/09 02:37:33;;;;;;;47.05;27.08;;;;;;;3.67;100.00;96636.81;4982341;28;20402;-73
2023/12/09 02:40:00;;;;;;;62.28;30.15;;;;;;;3.63;100.00;96646.72;4982525;28;20459;-73
2023/12/09 02:42:26;;;;;;;56.58;28.88;;;;;;;3.62;100.00;96642.44;4979026;28;20046;-73
2023/12/09 02:44:52;;;;;;;52.33;29.27;;;;;;;3.62;100.00;96637.03;4981169;28;20442;-73
2023/12/09 02:47:17;;;;;;;58.42;30.55;;;;;;;3.50;100.00;96626.84;4984694;28;20046;-73
2023/12/09 02:49:43;;;;;;;55.53;28.67;;;;;;;3.29;100.00;96618.59;5003075;28;20038;-72
2023/12/09 02:52:10;;;;;;;62.97;32.25;;;;;;;3.06;100.00;96621.50;4983966;28;20080;-72
2023/12/09 02:54:35;;;;;;;64.03;32.55;;;;;;;3.05;100.00;96621.81;4980723;28;20153;-72
2023/12/09 02:57:01;;;;;;;65.03;33.13;;;;;;;3.08;100.00;96623.88;4981865;28;20140;-72
2023/12/09 02:59:28;;;;;;;63.88;32.70;;;;;;;3.09;100.00;96620.06;4974735;28;20061;-72
2023/12/09 03:01:54;;;;;;;67.38;34.55;;;;;;;3.13;100.00;96615.59;4980751;28;20128;-72
2023/12/09 03:04:20;;;;;;;66.50;33.75;;;;;;;3.19;100.00;96595.38;4978101;28;20482;-71
2023/12/09 03:06:45;;;;;;;71.97;34.05;;;;;;;3.18;100.00;96588.34;4981148;28;20114;-70
2023/12/09 03:09:11;;;;;;;70.60;35.50;;;;;;;3.35;100.00;96592.97;4975981;28;20053;-70
2023/12/09 03:11:37;;;;;;;69.30;34.92;;;;;;;3.38;100.00;96589.59;4982154;28;20046;-69
2023/12/09 03:14:02;;;;;;;69.38;35.20;;;;;;;3.50;100.00;96588.94;4995218;28;20136;-73
2023/12/09 03:16:27;;;;;;;66.30;35.40;;;;;;;3.59;100.00;96589.69;4981334;28;20105;-72
2023/12/09 03:18:53;;;;;;;67.28;34.47;;;;;;;3.80;100.00;96589.00;4981275;28;20046;-72
2023/12/09 03:21:18;;;;;;;71.38;36.85;;;;;;;3.88;100.00;96579.25;4993792;28;20039;-72
2023/12/09 03:23:44;;;;;;;70.57;36.83;;;;;;;3.72;100.00;96570.84;4981039;28;20129;-72
2023/12/09 03:26:16;;;;;;;83.10;38.67;;;;;;;3.65;100.00;96574.06;4979994;28;20056;-70
2023/12/09 03:28:43;;;;;;;76.70;38.83;;;;;;;3.61;100.00;96567.72;4981128;28;20130;-70
2023/12/09 03:31:13;;;;;;;79.70;42.30;;;;;;;3.52;100.00;96561.53;4975233;28;20386;-72
2023/12/09 03:33:40;;;;;;;63.22;33.00;;;;;;;3.42;100.00;96559.94;4979627;28;20042;-72
2023/12/09 03:36:07;;;;;;;84.97;31.25;;;;;;;3.21;100.00;96560.66;4973590;28;20044;-73
2023/12/09 03:38:32;;;;;;;53.92;28.90;;;;;;;3.21;100.00;96570.69;4989105;28;20140;-71
2023/12/09 03:40:58;;;;;;;57.60;28.98;;;;;;;3.30;100.00;96563.34;4982436;28;20125;-71
2023/12/09 03:43:23;;;;;;;53.55;28.33;;;;;;;3.44;100.00;96569.34;4983426;28;20304;-71
2023/12/09 03:45:49;;;;;;;53.70;28.88;;;;;;;3.52;100.00;96575.84;4995664;28;20126;-70
2023/12/09 03:48:14;;;;;;;54.75;28.88;;;;;;;3.55;100.00;96577.16;4976226;28;20057;-72
2023/12/09 03:50:39;;;;;;;52.03;28.92;;;;;;;3.54;100.00;96568.19;4980786;28;20122;-71
2023/12/09 03:53:05;;;;;;;55.35;30.65;;;;;;;3.51;100.00;96565.34;4984867;28;20050;-71
2023/12/09 03:55:30;;;;;;;62.75;33.92;;;;;;;3.47;100.00;96561.72;4978865;28;20112;-72
2023/12/09 03:57:56;;;;;;;61.15;34.13;;;;;;;3.49;100.00;96552.13;4978065;28;20136;-72
2023/12/09 04:00:22;;;;;;;63.42;33.40;;;;;;;3.42;100.00;96543.72;4981134;28;20763;-71
2023/12/09 04:02:48;;;;;;;68.22;37.17;;;;;;;3.31;100.00;96542.47;4982156;28;20155;-72
2023/12/09 04:05:13;;;;;;;71.22;37.13;;;;;;;3.25;100.00;96534.53;4971762;28;20061;-71
2023/12/09 04:07:39;;;;;;;72.57;37.72;;;;;;;3.26;100.00;96538.06;4981984;28;20080;-71
2023/12/09 04:10:05;;;;;;;77.13;36.45;;;;;;;3.24;100.00;96538.38;4974406;28;20042;-71
2023/12/09 04:12:31;;;;;;;73.63;37.42;;;;;;;3.21;100.00;96539.00;4978992;28;20153;-73
2023/12/09 04:14:57;;;;;;;75.65;36.88;;;;;;;3.23;100.00;96539.47;4979745;28;20657;-73
2023/12/09 04:17:23;;;;;;;71.40;37.28;;;;;;;3.28;100.00;96526.88;4990432;28;20142;-72
2023/12/09 04:19:51;;;;;;;70.07;37.15;;;;;;;3.24;100.00;96524.84;4980759;28;20129;-72
2023/12/09 04:22:17;;;;;;;70.72;37.22;;;;;;;3.28;100.00;96529.59;4975040;28;20042;-72
2023/12/09 04:24:42;;;;;;;74.35;37.30;;;;;;;3.27;100.00;96536.91;4980836;28;20691;-73
2023/12/09 04:27:08;;;;;;;69.57;37.90;;;;;;;3.24;100.00;96535.66;4975668;28;20060;-72
2023/12/09 04:29:33;;;;;;;66.93;35.53;;;;;;;3.25;100.00;96537.22;4979360;28;20050;-71
2023/12/09 04:31:59;;;;;;;65.60;34.95;;;;;;;3.38;100.00;96554.38;4980704;28;20046;-72
2023/12/09 04:34:24;;;;;;;58.83;33.60;;;;;;;3.49;100.00;96546.72;4974745;28;20038;-72
2023/12/09 04:36:49;;;;;;;62.00;33.28;;;;;;;3.54;100.00;96551.94;4978409;28;20481;-72
2023/12/09 04:39:15;;;;;;;58.50;32.08;;;;;;;3.59;100.00;96557.19;4987484;28;20397;-73
2023/12/09 04:41:40;;;;;;;60.33;32.40;;;;;;;3.59;100.00;96559.13;4980626;28;20446;-73
2023/12/09 04:44:05;;;;;;;60.97;31.85;;;;;;;3.62;100.00;96551.13;4974271;28;20593;-70
2023/12/09 04:46:32;;;;;;;58.17;32.97;;;;;;;3.66;100.00;96550.50;4979825;28;20050;-71
2023/12/09 04:48:57;;;;;;;59.33;33.00;;;;;;;3.70;100.00;96546.00;4979889;28;20096;-73
2023/12/09 04:51:23;;;;;;;57.75;31.27;;;;;;;3.68;100.00;96553.66;4976971;28;20136;-74
2023/12/09 04:53:48;;;;;;;53.22;30.42;;;;;;;3.67;100.00;96557.47;4990419;28;20046;-72
2023/12/09 04:56:14;;;;;;;54.15;29.75;;;;;;;3.69;100.00;96564.19;4996596;28;20046;-72
2023/12/09 04:58:40;;;;;;;51.08;28.83;;;;;;;3.64;100.00;96565.16;4983401;28;20038;-71
2023/12/09 05:01:05;;;;;;;53.00;30.13;;;;;;;3.65;100.00;96571.34;4974844;28;20050;-71
2023/12/09 05:03:31;;;;;;;52.63;28.30;;;;;;;3.67;100.00;96571.03;4980543;28;20370;-71
2023/12/09 05:05:56;;;;;;;50.75;29.42;;;;;;;3.69;100.00;96576.91;4980162;28;20042;-71
2023/12/09 05:08:21;;;;;;;49.88;28.42;;;;;;;3.66;100.00;96575.66;4973913;28;20046;-71
2023/12/09 05:10:48;;;;;;;48.08;26.77;;;;;;;3.67;100.00;96574.53;4976726;28;20512;-70
2023/12/09 05:13:13;;;;;;;47.42;27.40;;;;;;;3.71;100.00;96580.91;4976145;28;20061;-69
2023/12/09 05:15:39;;;;;;;50.22;28.60;;;;;;;3.63;100.00;96587.91;4988299;28;20039;-72
2023/12/09 05:18:04;;;;;;;47.97;27.85;;;;;;;3.53;100.00;96574.75;4982745;28;20517;-69
2023/12/09 05:20:30;;;;;;;46.90;27.23;;;;;;;3.53;100.00;96573.94;4979502;28;20046;-71
2023/12/09 05:22:55;;;;;;;52.28;28.75;;;;;;;3.45;100.00;96576.34;4994378;28;20096;-70
2023/12/09 05:25:21;;;;;;;55.60;30.75;;;;;;;3.28;100.00;96571.00;4990362;28;20057;-69
2023/12/09 05:27:47;;;;;;;57.92;32.22;;;;;;;3.17;100.00;96572.44;4979394;28;20053;-69
2023/12/09 05:30:12;;;;;;;63.28;33.70;;;;;;;3.13;100.00;96576.91;4974462;28;20568;-70
2023/12/09 05:32:37;;;;;;;69.57;35.08;;;;;;;3.11;100.00;96577.22;4978875;28;20113;-73
2023/12/09 05:35:03;;;;;;;69.95;36.95;;;;;;;3.14;100.00;96568.47;4976533;28;20042;-71
2023/12/09 05:37:29;;;;;;;65.57;34.50;;;;;;;3.19;100.00;96565.59;4994268;28;20433;-74
2023/12/09 05:39:54;;;;;;;70.38;34.72;;;;;;;3.21;100.00;96559.88;4980468;28;20045;-75
2023/12/09 05:42:20;;;;;;;79.63;39.38;;;;;;;3.13;100.00;96550.63;4975315;28;20039;-73
2023/12/09 05:44:45;;;;;;;87.00;42.13;;;;;;;2.98;100.00;96556.56;4993844;28;20053;-73
2023/12/09 05:47:10;;;;;;;74.80;36.72;;;;;;;2.93;100.00;96556.72;4977983;28;20045;-72
2023/12/09 05:49:36;;;;;;;81.30;38.55;;;;;;;2.90;100.00;96551.94;4998707;28;20114;-71
2023/12/09 05:52:01;;;;;;;72.18;35.33;;;;;;;2.92;100.00;96557.81;4998928;28;20053;-71
2023/12/09 05:54:26;;;;;;;73.82;35.95;;;;;;;2.92;100.00;96565.94;4994538;28;20711;-74
2023/12/09 05:56:52;;;;;;;70.57;35.28;;;;;;;3.02;100.00;96569.13;4983133;28;20047;-72
2023/12/09 05:59:17;;;;;;;90.45;38.90;;;;;;;3.11;100.00;96565.63;4974283;28;20073;-74
2023/12/09 06:01:43;;;;;;;75.28;35.90;;;;;;;3.11;100.00;96571.03;4982370;28;20042;-72
2023/12/09 06:04:08;;;;;;;76.43;36.72;;;;;;;3.17;100.00;96567.03;4978560;28;20879;-72
2023/12/09 06:06:34;;;;;;;88.45;39.08;;;;;;;3.24;100.00;96567.31;4981244;28;20058;-71
2023/12/09 06:08:59;;;;;;;70.85;36.40;;;;;;;3.24;100.00;96570.03;4981464;28;20081;-72
2023/12/09 06:11:25;;;;;;;66.97;33.67;;;;;;;3.37;100.00;96569.06;4980231;28;20046;-70
2023/12/09 06:13:50;;;;;;;61.17;32.80;;;;;;;3.47;100.00;96559.00;4984198;28;20089;-72
2023/12/09 06:16:18;;;;;;;56.15;31.25;;;;;;;3.57;100.00;96561.34;4992755;28;20030;-72
2023/12/09 06:18:46;;;;;;;52.00;29.20;;;;;;;3.48;100.00;96566.81;4981338;28;20081;-73
2023/12/09 06:21:25;;;;;;;49.75;28.33;;;;;;;3.52;100.00;96567.72;4962020;28;20046;-74
2023/12/09 06:23:51;;;;;;;45.57;26.47;;;;;;;3.49;100.00;96562.16;4982899;28;20155;-73
2023/12/09 06:26:16;;;;;;;49.47;29.50;;;;;;;3.47;100.00;96569.81;4978011;28;20324;-74
2023/12/09 06:28:42;;;;;;;55.10;28.40;;;;;;;3.53;100.00;96563.09;4982431;28;20125;-73
2023/12/09 06:31:10;;;;;;;60.17;29.08;;;;;;;3.55;100.00;96563.59;4984692;28;20038;-73
2023/12/09 06:33:36;;;;;;;44.92;25.33;;;;;;;3.56;100.00;96557.06;4981790;28;20061;-72
2023/12/09 06:36:01;;;;;;;42.80;26.13;;;;;;;3.49;100.00;96549.41;4981189;28;20393;-72
2023/12/09 06:38:27;;;;;;;45.85;25.48;;;;;;;3.45;100.00;96551.97;4990386;28;20048;-73
2023/12/09 06:40:53;;;;;;;45.92;26.30;;;;;;;3.47;100.00;96548.16;5001285;28;20563;-73
2023/12/09 06:43:18;;;;;;;50.97;27.13;;;;;;;3.40;100.00;96546.75;4991598;28;20042;-74
2023/12/09 06:45:43;;;;;;;50.47;27.65;;;;;;;3.21;100.00;96539.00;5003711;28;20045;-74
2023/12/09 06:48:09;;;;;;;45.55;26.20;;;;;;;3.14;100.00;96540.63;4995288;28;20065;-71
2023/12/09 06:50:34;;;;;;;44.42;27.05;;;;;;;3.08;100.00;96531.06;5009094;28;20076;-71
2023/12/09 06:53:03;;;;;;;45.63;28.30;;;;;;;3.11;100.00;96543.97;4992176;28;20042;-71
2023/12/09 06:55:28;;;;;;;54.08;28.88;;;;;;;3.02;100.00;96536.66;4994536;28;20104;-72
2023/12/09 06:57:53;;;;;;;51.40;28.98;;;;;;;2.81;100.00;96541.94;4990516;28;20069;-71
2023/12/09 07:00:19;;;;;;;48.63;27.50;;;;;;;2.82;100.00;96540.03;5006508;28;20144;-72
2023/12/09 07:02:44;;;;;;;48.88;26.75;;;;;;;2.90;100.00;96543.84;5008424;28;20047;-71
2023/12/09 07:05:13;;;;;;;53.28;26.83;;;;;;;3.15;100.00;96537.59;4997674;28;20042;-72
2023/12/09 07:07:39;;;;;;;50.85;27.80;;;;;;;3.25;100.00;96526.41;4998655;28;20122;-70
2023/12/09 07:10:05;;;;;;;42.33;24.08;;;;;;;3.37;100.00;96516.84;4996092;28;20095;-70
2023/12/09 07:12:31;;;;;;;44.53;25.20;;;;;;;3.41;100.00;96512.34;4991786;28;20909;-72
2023/12/09 07:14:58;;;;;;;44.03;24.25;;;;;;;3.43;100.00;96520.94;4992637;28;20035;-72
2023/12/09 07:17:24;;;;;;;41.55;23.48;;;;;;;3.55;100.00;96522.97;4993237;28;20050;-72
2023/12/09 07:19:52;;;;;;;43.03;24.77;;;;;;;3.45;100.00;96522.19;5001369;28;20151;-72
2023/12/09 07:22:18;;;;;;;42.17;24.08;;;;;;;3.43;100.00;96513.59;4989187;28;20069;-73
2023/12/09 07:24:43;;;;;;;44.10;23.85;;;;;;;3.34;100.00;96510.13;4994911;28;20047;-73
2023/12/09 07:27:09;;;;;;;43.70;24.15;;;;;;;3.16;100.00;96505.91;4982816;28;20062;-73
2023/12/09 07:29:35;;;;;;;43.45;24.33;;;;;;;3.13;100.00;96514.66;4989259;28;20050;-72
2023/12/09 07:32:00;;;;;;;45.95;25.88;;;;;;;3.23;100.00;96523.22;4974246;28;20052;-72
2023/12/09 07:34:26;;;;;;;46.03;27.15;;;;;;;3.44;100.00;96527.97;4976632;28;20433;-71
2023/12/09 07:36:51;;;;;;;42.13;24.85;;;;;;;3.60;100.00;96539.03;4982579;28;20500;-73
2023/12/09 07:39:17;;;;;;;40.97;24.50;;;;;;;3.71;100.00;96540.28;4986312;28;20396;-73
2023/12/09 07:41:44;;;;;;;48.83;27.42;;;;;;;3.53;100.00;96530.59;5001609;28;20543;-71
2023/12/09 07:44:10;;;;;;;39.88;24.38;;;;;;;3.51;100.00;96530.97;4986629;28;20104;-71
2023/12/09 07:46:36;;;;;;;37.83;23.88;;;;;;;3.48;100.00;96526.19;4987316;28;20054;-71
2023/12/09 07:49:02;;;;;;;41.78;23.90;;;;;;;3.44;100.00;96517.13;4990801;28;20046;-71
2023/12/09 07:51:27;;;;;;;39.97;24.13;;;;;;;3.19;100.00;96513.38;4997058;28;20046;-71
2023/12/09 07:53:53;;;;;;;42.60;26.15;;;;;;;3.19;100.00;96519.59;4993369;28;20449;-71
2023/12/09 07:56:18;;;;;;;42.88;25.48;;;;;;;3.14;100.00;96508.16;4968960;28;20441;-72
2023/12/09 07:58:45;;;;;;;57.20;33.40;;;;;;;3.06;100.00;96507.03;4976320;28;20042;-72
2023/12/09 08:01:11;;;;;;;73.65;43.15;;;;;;;3.10;100.00;96504.47;4976401;28;20046;-72
2023/12/09 08:03:37;;;;;;;80.50;47.67;;;;;;;3.08;100.00;96509.41;4982572;28;20508;-73
2023/12/09 08:06:02;;;;;;;52.72;28.17;;;;;;;3.11;100.00;96520.41;5004907;28;20038;-71
2023/12/09 08:08:28;;;;;;;67.97;38.63;;;;;;;3.06;100.00;96512.44;5000153;28;20188;-73
2023/12/09 08:10:54;;;;;;;51.92;29.20;;;;;;;3.03;100.00;96505.00;5009062;28;20397;-72
2023/12/09 08:13:19;;;;;;;61.83;32.13;;;;;;;3.04;100.00;96501.16;4978684;28;20041;-73
2023/12/09 08:15:45;;;;;;;121.50;75.53;;;;;;;3.10;100.00;96501.78;4982009;28;20049;-72
2023/12/09 08:18:10;;;;;;;60.03;31.98;;;;;;;3.22;100.00;96499.19;4984423;28;20100;-73
2023/12/09 08:20:36;;;;;;;60.83;34.17;;;;;;;3.26;100.00;96497.44;5010695;28;20778;-75
2023/12/09 08:23:03;;;;;;;54.78;32.97;;;;;;;3.29;100.00;96496.00;5005663;28;20050;-73
2023/12/09 08:25:29;;;;;;;61.30;35.65;;;;;;;3.27;100.00;96500.94;5002166;28;20042;-73
2023/12/09 08:27:54;;;;;;;148.10;80.72;;;;;;;3.27;100.00;96499.03;4993132;28;20049;-71
2023/12/09 08:30:19;;;;;;;52.70;29.23;;;;;;;3.29;100.00;96498.69;4980697;28;20030;-73
2023/12/09 08:32:45;;;;;;;70.05;41.65;;;;;;;3.40;100.00;96499.94;4996550;28;20061;-72
2023/12/09 08:35:10;;;;;;;67.05;37.67;;;;;;;3.49;100.00;96503.38;4978172;28;20076;-72
2023/12/09 08:37:37;;;;;;;68.72;40.42;;;;;;;3.52;100.00;96505.44;4987814;28;20080;-72
2023/12/09 08:40:11;;;;;;;48.17;28.77;;;;;;;3.59;100.00;96500.31;4988719;28;20068;-72
2023/12/09 08:42:43;;;;;;;53.13;29.40;;;;;;;3.68;100.00;96508.41;4988475;28;20097;-74
2023/12/09 08:45:11;;;;;;;47.15;28.45;;;;;;;3.80;100.00;96502.31;4973014;28;20054;-75
2023/12/09 08:47:36;;;;;;;44.25;26.35;;;;;;;3.83;100.00;96509.75;5008402;28;20060;-74
2023/12/09 08:50:04;;;;;;;43.17;25.10;;;;;;;3.68;100.00;96503.00;4983064;28;20039;-73
2023/12/09 08:52:31;;;;;;;40.22;23.30;;;;;;;3.89;100.00;96500.34;4988150;28;20050;-72
2023/12/09 08:54:56;;;;;;;39.28;24.15;;;;;;;4.23;100.00;96498.50;4992644;28;20092;-72
2023/12/09 08:57:23;;;;;;;45.28;24.10;;;;;;;4.37;100.00;96496.31;4963076;28;20144;-75
2023/12/09 08:59:49;;;;;;;37.97;24.25;;;;;;;4.10;100.00;96491.44;4994394;28;20136;-74
2023/12/09 09:02:14;;;;;;;38.60;24.33;;;;;;;4.35;100.00;96489.66;4977092;28;20126;-73
2023/12/09 09:04:40;;;;;;;38.47;23.08;;;;;;;4.55;100.00;96482.63;4982393;28;20079;-73
2023/12/09 09:07:06;;;;;;;28.50;18.73;;;;;;;4.36;100.00;96477.69;4996817;28;20038;-72
2023/12/09 09:09:32;;;;;;;34.13;20.88;;;;;;;4.21;100.00;96482.59;4991404;28;20034;-72
2023/12/09 09:11:57;;;;;;;31.33;20.30;;;;;;;4.23;100.00;96482.22;4978480;28;20046;-73
2023/12/09 09:14:23;;;;;;;34.17;20.60;;;;;;;4.26;100.00;96470.75;4968695;28;20313;-74
2023/12/09 09:16:49;;;;;;;29.95;20.40;;;;;;;4.27;100.00;96479.66;4980620;28;20042;-74
2023/12/09 09:19:14;;;;;;;36.30;22.17;;;;;;;4.27;100.00;96469.63;4976079;28;20039;-72
2023/12/09 09:21:43;;;;;;;33.80;21.55;;;;;;;4.16;100.00;96463.81;4975208;28;20412;-74
2023/12/09 09:24:08;;;;;;;38.22;22.98;;;;;;;4.25;100.00;96469.16;4992008;28;20038;-73
2023/12/09 09:26:34;;;;;;;42.03;23.23;;;;;;;4.23;100.00;96465.97;4969952;28;20046;-72
2023/12/09 09:29:00;;;;;;;45.05;24.73;;;;;;;4.32;100.00;96458.59;4986163;28;20038;-75
2023/12/09 09:31:26;;;;;;;40.92;24.02;;;;;;;4.41;100.00;96447.63;5008014;28;20048;-73
2023/12/09 09:33:51;;;;;;;43.95;24.08;;;;;;;4.69;100.00;96431.59;5008920;28;20129;-76
2023/12/09 09:36:17;;;;;;;40.13;23.35;;;;;;;4.58;100.00;96422.28;4978854;28;20046;-74
2023/12/09 09:38:43;;;;;;;38.28;23.42;;;;;;;5.05;100.00;96432.03;4991713;28;20045;-74
2023/12/09 09:41:20;;;;;;;46.58;27.55;;;;;;;6.16;100.00;96429.25;4996560;28;20038;-74
2023/12/09 09:43:57;;;;;;;36.00;23.40;;;;;;;7.18;100.00;96420.72;4997164;28;20052;-74
2023/12/09 09:46:24;;;;;;;35.33;20.30;;;;;;;7.67;100.00;96428.53;4987366;28;20430;-74
2023/12/09 09:48:51;;;;;;;29.23;18.55;;;;;;;7.59;100.00;96433.00;5013132;28;20065;-78
2023/12/09 09:51:26;;;;;;;27.33;16.75;;;;;;;8.38;100.00;96428.50;5005212;28;20070;-76
2023/12/09 09:54:26;;;;;;;24.20;15.82;;;;;;;9.01;100.00;96430.13;4986527;28;20046;-76
2023/12/09 09:56:52;;;;;;;22.45;14.40;;;;;;;9.37;100.00;96423.31;4976043;28;20150;-74
2023/12/09 09:59:18;;;;;;;20.17;14.15;;;;;;;9.02;100.00;96422.72;4988889;28;20038;-76
2023/12/09 10:01:44;;;;;;;23.67;15.80;;;;;;;9.12;100.00;96417.44;4995489;28;20045;-74
2023/12/09 10:04:19;;;;;;;22.73;14.38;;;;;;;8.75;100.00;96414.41;5007691;28;20041;-76
2023/12/09 10:06:46;;;;;;;21.40;13.45;;;;;;;8.48;100.00;96413.50;4997506;28;20249;-75
2023/12/09 10:09:11;;;;;;;19.77;14.30;;;;;;;8.39;100.00;96400.03;4999199;28;20038;-74
2023/12/09 10:11:37;;;;;;;20.23;13.65;;;;;;;8.42;100.00;96400.16;4975964;28;20137;-74
2023/12/09 10:14:04;;;;;;;19.98;13.20;;;;;;;8.80;100.00;96395.81;4982039;28;20069;-71
2023/12/09 10:16:29;;;;;;;23.42;13.02;;;;;;;8.94;100.00;96376.16;4999389;28;20042;-72
2023/12/09 10:18:56;;;;;;;20.48;13.57;;;;;;;8.79;100.00;96371.59;4975036;28;20042;-73
2023/12/09 10:21:22;;;;;;;20.98;12.85;;;;;;;8.97;100.00;96374.66;4977502;28;20096;-72
2023/12/09 10:23:47;;;;;;;21.70;13.13;;;;;;;9.06;100.00;96377.13;4982100;28;20469;-72
2023/12/09 10:26:14;;;;;;;23.15;15.52;;;;;;;8.88;100.00;96372.16;4999958;28;20045;-72
2023/12/09 10:28:50;;;;;;;17.55;12.52;;;;;;;8.95;100.00;96368.75;5000872;28;20042;-72
2023/12/09 10:31:26;;;;;;;14.57;10.65;;;;;;;8.58;100.00;96358.34;4949190;28;20061;-72
2023/12/09 10:33:56;;;;;;;16.85;11.35;;;;;;;8.32;100.00;96359.78;4972461;28;20061;-72
2023/12/09 10:36:26;;;;;;;18.87;11.77;;;;;;;8.02;100.00;96352.16;4984380;28;20041;-73
2023/12/09 10:38:56;;;;;;;18.17;12.02;;;;;;;7.98;100.00;96353.25;4985658;28;20311;-73
2023/12/09 10:41:35;;;;;;;19.48;12.98;;;;;;;8.13;100.00;96348.88;4988870;28;20042;-71
2023/12/09 10:44:15;;;;;;;18.42;12.40;;;;;;;8.29;100.00;96343.34;4999740;28;20603;-72
2023/12/09 10:46:42;;;;;;;20.00;11.98;;;;;;;8.26;100.00;96328.47;4986192;28;20054;-73
2023/12/09 10:49:18;;;;;;;21.85;13.85;;;;;;;8.29;100.00;96316.06;4942407;28;20047;-73
2023/12/09 10:51:47;;;;;;;19.90;12.15;;;;;;;8.16;100.00;96316.19;4975288;28;20385;-72
2023/12/09 10:54:13;;;;;;;18.40;12.60;;;;;;;8.19;100.00;96312.75;4988442;28;20045;-74
2023/12/09 10:56:42;;;;;;;19.17;12.93;;;;;;;8.16;100.00;96318.16;4978545;28;20061;-71
2023/12/09 10:59:08;;;;;;;19.48;13.13;;;;;;;8.11;100.00;96312.97;4943847;28;20387;-69
2023/12/09 11:01:47;;;;;;;18.13;12.47;;;;;;;8.06;100.00;96300.41;4973498;28;20069;-73
2023/12/09 11:04:18;;;;;;;16.92;11.68;;;;;;;8.02;100.00;96283.19;4962483;28;20061;-72
2023/12/09 11:06:46;;;;;;;16.02;11.30;;;;;;;7.92;100.00;96279.09;4983639;28;20188;-72
2023/12/09 11:09:18;;;;;;;17.95;11.80;;;;;;;7.60;100.00;96275.75;4944439;28;20046;-73
2023/12/09 11:11:54;;;;;;;17.30;12.23;;;;;;;7.37;100.00;96259.28;4987600;28;20069;-73
2023/12/09 11:14:34;;;;;;;17.90;11.80;;;;;;;7.39;100.00;96267.88;4984039;28;20358;-73